Airfield :







YOU CAN JOIN US ON...

 
LOGIN :

Register | Disclaimer

   EN    FR    IT 

 









Legend :    VFR   Marginal VFR   IFR   Intensive IFR   Very Intensive IFR
Visi :
Ceiling :
>= 8 km
>= 3000ft
5 to 8 km
1000 to 3000 ft
1500m to 5 km
500 to 1000 ft
800 to 1500m
200 to 500 ft
< 800m
< 200 ft
Symbols :   Thunderstorms  Fog  Heavy snow  Heavy precipitations  Wind > 20 kt






- Airport Elevation : 124 ft
- IATA code : YGV


CYGV - Havre St Pierre

CURRENT METAR :
  • 241400Z AUTO 08010G16KT 9SM OVC042 12/07 A3038 RMK SLP289

EXPIRED METARs :
  • 241300Z AUTO 07009G15KT 9SM OVC042 11/07 A3038 RMK SLP290
  • 241200Z AUTO 07010KT 9SM OVC042 10/07 A3037 RMK SLP286
  • 241159Z AUTO 07010KT 9SM OVC042 10/07 A3037 RMK SLP286

TAF TAF CYGV
Valid from the 24 at 14:00 until the 25 at 02:00 UTC


241338Z 2414/2502 07010G20KT P6SM OVC040
BECMG 2418/2420 10015G25KT
FM242100 09015G25KT P6SM SCT015 OVC040
TEMPO 2421/2424 P6SM -SHRA SCT006 BKN015 OVC040
PROB30 2421/2424 BKN006
FM250000 09015G25KT 4SM -RA BR SCT004 OVC012
PROB30 2500/2502 2SM -SHRA BR BKN004 RMK FCST BASED ON AUTO OBS. NXT FCST BY 242000Z
CZUL FIR / North America



MET'MAP, your aeronautical weather chart ! - Copyright ORBIFLY December 2007 - Disclaimer

ORBIFLY MET'MAP TEAM :

Programming & Development : Alexandra Zaïnal
Concept & original design : Baudouin d'Aumeries
Assistance for programming : Marc-Olivier Méhu
Technical & hardware support : Manuel Goepfert

Contact : metmap@orbifly.com




SOURCES & CREDITS :

   NOAA